Time;durP1;ratioP1;P1;durP2;ratioP2;P2;SDS_P1;SDS_P2;PMS_P1;PMS_P2;Temp;Humidity;BMP_temperature;BMP_pressure;BME280_temperature;BME280_humidity;BME280_pressure;Samples;Min_cycle;Max_cycle;Signal;HPM_P1;HPM_P2
2022/10/07 00:02:02;;;;;;;;;;;10.70;99.90;;;;;;5031169;28;19921;-94
2022/10/07 00:04:31;;;;;;;;;;;10.70;99.90;;;;;;5025420;28;19925;-93
2022/10/07 00:06:57;;;;;;;;;;;10.70;99.90;;;;;;5027579;28;19921;-94
2022/10/07 00:09:23;;;;;;;;;;;10.70;99.90;;;;;;4994967;28;19928;-93
2022/10/07 00:11:48;;;;;;;;;;;10.70;99.90;;;;;;5028921;28;19921;-94
2022/10/07 00:14:14;;;;;;;;;;;11.00;99.90;;;;;;4995573;28;20015;-93
2022/10/07 00:16:40;;;;;;;;;;;10.70;99.90;;;;;;5028749;28;20058;-93
2022/10/07 00:19:07;;;;;;;;;;;10.80;99.90;;;;;;4993111;28;19928;-95
2022/10/07 00:21:33;;;;;;;;;;;10.90;99.90;;;;;;5026594;28;19930;-93
2022/10/07 00:23:59;;;;;;;;;;;10.70;99.90;;;;;;5028075;28;19928;-93
2022/10/07 00:26:26;;;;;;;;;;;10.70;99.90;;;;;;5030827;28;19925;-94
2022/10/07 00:28:52;;;;;;;;;;;11.70;99.90;;;;;;5030402;28;19920;-94
2022/10/07 00:31:19;;;;;;;;;;;11.50;99.90;;;;;;5026334;28;20353;-94
2022/10/07 00:33:45;;;;;;;;;;;10.70;99.90;;;;;;5011643;28;19932;-92
2022/10/07 00:36:12;;;;;;;;;;;11.90;99.90;;;;;;5012299;28;19943;-94
2022/10/07 00:38:41;;;;;;;;;;;11.60;99.90;;;;;;5026998;28;19932;-93
2022/10/07 00:41:08;;;;;;;;;;;10.70;99.90;;;;;;5027004;28;19921;-94
2022/10/07 00:43:33;;;;;;;;;;;11.70;99.90;;;;;;5025431;28;19921;-92
2022/10/07 00:46:06;;;;;;;;;;;11.10;99.90;;;;;;5010450;28;19928;-92
2022/10/07 00:48:33;;;;;;;;;;;10.70;99.90;;;;;;5011726;28;20447;-92
2022/10/07 00:51:00;;;;;;;;;;;10.70;99.90;;;;;;5012881;28;19968;-92
2022/10/07 00:53:29;;;;;;;;;;;11.40;99.90;;;;;;5028489;28;20435;-93
2022/10/07 00:55:56;;;;;;;;;;;10.70;99.90;;;;;;5012592;28;19920;-93
2022/10/07 00:58:23;;;;;;;;;;;10.60;99.90;;;;;;5029704;28;19921;-93
2022/10/07 01:00:48;;;;;;;;;;;10.70;99.90;;;;;;5011382;28;20439;-93
2022/10/07 01:03:14;;;;;;;;;;;10.30;99.90;;;;;;5028822;28;20020;-91
2022/10/07 01:05:39;;;;;;;;;;;10.60;99.90;;;;;;5027933;28;20019;-92
2022/10/07 01:08:05;;;;;;;;;;;12.00;99.90;;;;;;5012630;28;19924;-94
2022/10/07 01:10:38;;;;;;;;;;;11.80;99.90;;;;;;5028805;28;19972;-94
2022/10/07 01:13:22;;;;;;;;;;;10.60;99.90;;;;;;5016484;28;20315;-91
2022/10/07 01:15:47;;;;;;;;;;;10.60;99.90;;;;;;5034273;28;19948;-93
2022/10/07 01:18:32;;;;;;;;;;;10.80;99.90;;;;;;5018922;28;19943;-94
2022/10/07 01:21:06;;;;;;;;;;;10.50;99.90;;;;;;5055867;28;19998;-93
2022/10/07 01:23:51;;;;;;;;;;;10.50;99.90;;;;;;5043608;28;19985;-93
2022/10/07 01:26:38;;;;;;;;;;;10.50;99.90;;;;;;5043033;28;20444;-92
2022/10/07 01:29:08;;;;;;;;;;;10.50;99.90;;;;;;5027107;28;19928;-94
2022/10/07 01:31:46;;;;;;;;;;;10.50;99.90;;;;;;5026279;28;19940;-93
2022/10/07 01:34:13;;;;;;;;;;;10.50;99.90;;;;;;5026371;28;19932;-92
2022/10/07 01:36:39;;;;;;;;;;;10.50;99.90;;;;;;5023520;28;20014;-93
2022/10/07 01:39:07;;;;;;;;;;;11.40;99.90;;;;;;5025537;28;19947;-92
2022/10/07 01:41:35;;;;;;;;;;;10.50;99.90;;;;;;5040313;28;19921;-93
2022/10/07 01:44:05;;;;;;;;;;;11.80;99.90;;;;;;5038746;28;19967;-92
2022/10/07 01:46:33;;;;;;;;;;;11.40;99.90;;;;;;5022501;28;19925;-92
2022/10/07 01:48:58;;;;;;;;;;;10.40;99.90;;;;;;5036493;28;19920;-93
2022/10/07 01:51:26;;;;;;;;;;;10.40;99.90;;;;;;5000295;28;19966;-94
2022/10/07 01:54:06;;;;;;;;;;;10.40;99.90;;;;;;5033478;28;19921;-93
2022/10/07 01:56:50;;;;;;;;;;;10.30;99.90;;;;;;5016119;28;19929;-93
2022/10/07 01:59:16;;;;;;;;;;;10.30;99.90;;;;;;5016019;28;19921;-94
2022/10/07 02:01:46;;;;;;;;;;;10.40;99.90;;;;;;5015162;28;19927;-92
2022/10/07 02:04:24;;;;;;;;;;;10.40;99.90;;;;;;5015240;28;19925;-92
2022/10/07 02:06:59;;;;;;;;;;;10.20;99.90;;;;;;5014552;28;19999;-94
2022/10/07 02:09:36;;;;;;;;;;;10.20;99.90;;;;;;5014342;28;19978;-93
2022/10/07 02:12:10;;;;;;;;;;;10.20;99.90;;;;;;5031324;28;20004;-93
2022/10/07 02:14:40;;;;;;;;;;;10.60;99.90;;;;;;5010975;28;19925;-92
2022/10/07 02:17:10;;;;;;;;;;;10.70;99.90;;;;;;4998347;28;20144;-93
2022/10/07 02:19:39;;;;;;;;;;;10.10;99.90;;;;;;5030617;28;19924;-94
2022/10/07 02:22:06;;;;;;;;;;;10.10;99.90;;;;;;5013722;28;19929;-94
2022/10/07 02:24:33;;;;;;;;;;;10.70;99.90;;;;;;5030969;28;20014;-92
2022/10/07 02:27:00;;;;;;;;;;;10.10;99.90;;;;;;5030379;28;19924;-92
2022/10/07 02:29:29;;;;;;;;;;;11.00;99.90;;;;;;5031188;28;19921;-93
2022/10/07 02:31:57;;;;;;;;;;;10.10;99.90;;;;;;5013215;28;19931;-93
2022/10/07 02:34:30;;;;;;;;;;;10.10;99.90;;;;;;5030476;28;20461;-94
2022/10/07 02:37:01;;;;;;;;;;;10.10;99.90;;;;;;5014205;28;19979;-94
2022/10/07 02:39:27;;;;;;;;;;;10.10;99.90;;;;;;5030421;28;19921;-94
2022/10/07 02:41:53;;;;;;;;;;;10.30;99.90;;;;;;5030560;28;19982;-91
2022/10/07 02:44:37;;;;;;;;;;;11.00;99.90;;;;;;5030383;28;19920;-91
2022/10/07 02:47:07;;;;;;;;;;;10.00;99.90;;;;;;5013819;28;19921;-90
2022/10/07 02:49:36;;;;;;;;;;;10.00;99.90;;;;;;5029810;28;19921;-92
2022/10/07 02:52:04;;;;;;;;;;;9.90;99.90;;;;;;5029953;28;19996;-92
2022/10/07 02:54:38;;;;;;;;;;;9.90;99.90;;;;;;5014329;28;19921;-92
2022/10/07 02:57:04;;;;;;;;;;;9.90;99.90;;;;;;5029919;28;19921;-91
2022/10/07 02:59:31;;;;;;;;;;;9.90;99.90;;;;;;5030447;28;20017;-93
2022/10/07 03:01:58;;;;;;;;;;;9.90;99.90;;;;;;5029581;28;20339;-92
2022/10/07 03:04:24;;;;;;;;;;;9.90;99.90;;;;;;5012753;28;19927;-91
2022/10/07 03:06:50;;;;;;;;;;;11.00;99.90;;;;;;5012920;28;19920;-91
2022/10/07 03:09:16;;;;;;;;;;;10.20;99.90;;;;;;4996752;28;20019;-93
2022/10/07 03:11:41;;;;;;;;;;;9.90;99.90;;;;;;5029876;28;19921;-92
2022/10/07 03:14:07;;;;;;;;;;;10.60;99.90;;;;;;4996466;28;19927;-91
2022/10/07 03:16:32;;;;;;;;;;;10.50;99.90;;;;;;5030063;28;19929;-91
2022/10/07 03:18:58;;;;;;;;;;;10.10;99.90;;;;;;5029261;28;19927;-93
2022/10/07 03:21:24;;;;;;;;;;;9.90;99.90;;;;;;5014030;28;19920;-92
2022/10/07 03:23:51;;;;;;;;;;;10.20;99.90;;;;;;5012651;28;20475;-92
2022/10/07 03:26:18;;;;;;;;;;;9.80;99.90;;;;;;4996771;28;19966;-91
2022/10/07 03:28:49;;;;;;;;;;;9.80;99.90;;;;;;5029455;28;20313;-93
2022/10/07 03:31:15;;;;;;;;;;;9.80;99.90;;;;;;5013167;28;19967;-92
2022/10/07 03:33:42;;;;;;;;;;;10.10;99.90;;;;;;5015691;28;20372;-92
2022/10/07 03:36:08;;;;;;;;;;;9.80;99.90;;;;;;5031706;28;19921;-91
2022/10/07 03:38:34;;;;;;;;;;;10.50;99.90;;;;;;5030078;28;19920;-92
2022/10/07 03:41:03;;;;;;;;;;;9.80;99.90;;;;;;5029196;28;19928;-91
2022/10/07 03:43:29;;;;;;;;;;;10.40;99.90;;;;;;5013306;28;19928;-92
2022/10/07 03:45:57;;;;;;;;;;;11.00;99.90;;;;;;5013099;28;19976;-93
2022/10/07 03:48:22;;;;;;;;;;;9.80;99.90;;;;;;4996977;28;19974;-92
2022/10/07 03:50:48;;;;;;;;;;;9.80;99.90;;;;;;5029754;28;19925;-92
2022/10/07 03:53:14;;;;;;;;;;;10.40;99.90;;;;;;4997982;28;20192;-91
2022/10/07 03:55:40;;;;;;;;;;;9.80;99.90;;;;;;5015881;28;19920;-94
2022/10/07 03:58:05;;;;;;;;;;;10.30;99.90;;;;;;5016084;28;20288;-92
2022/10/07 04:00:31;;;;;;;;;;;9.80;99.90;;;;;;5033341;28;19920;-92
2022/10/07 04:02:56;;;;;;;;;;;10.10;99.90;;;;;;5039788;28;19923;-93
2022/10/07 04:05:22;;;;;;;;;;;9.80;99.90;;;;;;5036423;28;19924;-95
2022/10/07 04:07:48;;;;;;;;;;;10.30;99.90;;;;;;5020204;28;19976;-92
2022/10/07 04:10:20;;;;;;;;;;;9.80;99.90;;;;;;5070011;28;19927;-94
2022/10/07 04:12:50;;;;;;;;;;;10.90;99.90;;;;;;5037204;28;19920;-92
2022/10/07 04:15:15;;;;;;;;;;;9.80;99.90;;;;;;5035395;28;20458;-93
2022/10/07 04:17:42;;;;;;;;;;;9.80;99.90;;;;;;5021911;28;19920;-94
2022/10/07 04:20:08;;;;;;;;;;;10.40;99.90;;;;;;5015341;28;19921;-96
2022/10/07 04:22:34;;;;;;;;;;;9.80;99.90;;;;;;4999014;28;19976;-93
2022/10/07 04:27:43;;;;;;;;;;;10.40;99.90;;;;;;5016657;28;19985;-93
2022/10/07 04:30:09;;;;;;;;;;;9.80;99.90;;;;;;5030707;28;20015;-93
2022/10/07 04:32:35;;;;;;;;;;;9.80;99.90;;;;;;5012299;28;19925;-94
2022/10/07 04:35:02;;;;;;;;;;;10.70;99.90;;;;;;4996021;28;19920;-94
2022/10/07 04:37:28;;;;;;;;;;;9.80;99.90;;;;;;5012319;28;19972;-94
2022/10/07 04:39:54;;;;;;;;;;;9.80;99.90;;;;;;5013139;28;19920;-91
2022/10/07 04:45:05;;;;;;;;;;;10.10;99.90;;;;;;5015639;28;19920;-91
2022/10/07 04:47:34;;;;;;;;;;;9.70;99.90;;;;;;4999193;28;19924;-92
2022/10/07 04:50:00;;;;;;;;;;;9.70;99.90;;;;;;4999390;28;19920;-91
2022/10/07 04:52:26;;;;;;;;;;;9.80;99.90;;;;;;5015485;28;19941;-91
2022/10/07 04:54:52;;;;;;;;;;;9.70;99.90;;;;;;4999290;28;19975;-89
2022/10/07 04:57:17;;;;;;;;;;;10.80;99.90;;;;;;5031193;28;20323;-90
2022/10/07 04:59:43;;;;;;;;;;;10.10;99.90;;;;;;4999656;28;19928;-92
2022/10/07 05:02:09;;;;;;;;;;;9.70;99.90;;;;;;5018299;28;20723;-96
2022/10/07 05:04:34;;;;;;;;;;;9.80;99.90;;;;;;5014430;28;19920;-91
2022/10/07 05:07:00;;;;;;;;;;;9.70;99.90;;;;;;4999858;28;19931;-93
2022/10/07 05:09:26;;;;;;;;;;;9.70;99.90;;;;;;5032298;28;19924;-91
2022/10/07 05:11:54;;;;;;;;;;;10.40;99.90;;;;;;5016254;28;19987;-93
2022/10/07 05:14:20;;;;;;;;;;;10.60;99.90;;;;;;5034073;28;20422;-94
2022/10/07 05:16:47;;;;;;;;;;;9.60;99.90;;;;;;5021246;28;20012;-96
2022/10/07 05:19:12;;;;;;;;;;;9.70;99.90;;;;;;5018736;28;19921;-94
2022/10/07 05:21:41;;;;;;;;;;;9.70;99.90;;;;;;5016812;28;19931;-94
2022/10/07 05:24:06;;;;;;;;;;;10.20;99.90;;;;;;5002182;28;19921;-96
2022/10/07 05:26:32;;;;;;;;;;;9.60;99.90;;;;;;5035689;28;20396;-91
2022/10/07 05:28:58;;;;;;;;;;;10.10;99.90;;;;;;5042611;28;19917;-96
2022/10/07 05:31:25;;;;;;;;;;;10.40;99.90;;;;;;5007707;28;19978;-97
2022/10/07 05:33:50;;;;;;;;;;;9.60;99.90;;;;;;5017519;28;19979;-92
2022/10/07 05:36:22;;;;;;;;;;;9.90;99.90;;;;;;5016236;28;20010;-88
2022/10/07 05:38:57;;;;;;;;;;;9.70;99.90;;;;;;5000734;28;20382;-89
2022/10/07 05:41:22;;;;;;;;;;;9.80;99.90;;;;;;4999129;28;20326;-89
2022/10/07 05:43:48;;;;;;;;;;;9.70;99.90;;;;;;5014940;28;19920;-88
2022/10/07 05:46:15;;;;;;;;;;;10.10;99.90;;;;;;5032428;28;20386;-88
2022/10/07 05:48:44;;;;;;;;;;;9.60;99.90;;;;;;5028094;28;19921;-90
2022/10/07 05:51:10;;;;;;;;;;;9.60;99.90;;;;;;5013580;28;19944;-93
2022/10/07 05:53:39;;;;;;;;;;;9.60;99.90;;;;;;4997935;28;19921;-93
2022/10/07 05:56:06;;;;;;;;;;;10.30;99.90;;;;;;5031358;28;19931;-93
2022/10/07 05:58:33;;;;;;;;;;;9.60;99.90;;;;;;5030068;28;20044;-89
2022/10/07 06:00:59;;;;;;;;;;;9.70;99.90;;;;;;5049690;28;19917;-89
2022/10/07 06:03:25;;;;;;;;;;;9.70;99.90;;;;;;5016900;28;19927;-89
2022/10/07 06:05:51;;;;;;;;;;;10.70;99.90;;;;;;5019347;28;19942;-89
2022/10/07 06:08:18;;;;;;;;;;;9.70;99.90;;;;;;5033114;28;19927;-89
2022/10/07 06:13:29;;;;;;;;;;;10.00;99.90;;;;;;5051760;28;19939;-89
2022/10/07 06:15:58;;;;;;;;;;;9.80;99.90;;;;;;5035660;28;19917;-89
2022/10/07 06:18:24;;;;;;;;;;;9.80;99.90;;;;;;5035295;28;19928;-88
2022/10/07 06:20:54;;;;;;;;;;;10.30;99.90;;;;;;5034864;28;19948;-88
2022/10/07 06:23:19;;;;;;;;;;;10.60;99.90;;;;;;5034995;28;20229;-89
2022/10/07 06:26:04;;;;;;;;;;;9.90;99.90;;;;;;5034409;28;19932;-89
2022/10/07 06:28:35;;;;;;;;;;;10.00;99.90;;;;;;5028600;28;19921;-89
2022/10/07 06:31:09;;;;;;;;;;;10.00;99.90;;;;;;5012912;28;20397;-90
2022/10/07 06:33:34;;;;;;;;;;;10.00;99.90;;;;;;5008688;28;19921;-90
2022/10/07 06:36:01;;;;;;;;;;;10.40;99.90;;;;;;5029663;28;19967;-91
2022/10/07 06:38:26;;;;;;;;;;;10.10;99.90;;;;;;4997220;28;19928;-89
2022/10/07 06:40:59;;;;;;;;;;;10.10;99.90;;;;;;4997777;28;19921;-90
2022/10/07 06:43:31;;;;;;;;;;;10.10;99.90;;;;;;5012557;28;20319;-90
2022/10/07 06:45:57;;;;;;;;;;;10.20;99.90;;;;;;4997056;28;20314;-88
2022/10/07 06:48:23;;;;;;;;;;;10.90;99.90;;;;;;5009570;28;19924;-89
2022/10/07 06:50:52;;;;;;;;;;;10.40;99.90;;;;;;4994146;28;19920;-89
2022/10/07 06:53:18;;;;;;;;;;;10.30;99.90;;;;;;5005366;28;19925;-90
2022/10/07 06:55:44;;;;;;;;;;;11.40;99.90;;;;;;5010349;28;19925;-90
2022/10/07 06:58:10;;;;;;;;;;;10.80;99.90;;;;;;5029054;28;19960;-90
2022/10/07 07:00:35;;;;;;;;;;;10.50;99.90;;;;;;5001960;28;20019;-90
2022/10/07 07:03:01;;;;;;;;;;;10.50;99.90;;;;;;5020883;28;19921;-89
2022/10/07 07:05:37;;;;;;;;;;;10.60;99.90;;;;;;5020938;28;19921;-89
2022/10/07 07:08:02;;;;;;;;;;;11.60;99.90;;;;;;5031722;28;19921;-90
2022/10/07 07:10:28;;;;;;;;;;;10.70;99.90;;;;;;5021161;28;19921;-90
2022/10/07 07:12:59;;;;;;;;;;;10.80;99.90;;;;;;5020444;28;19928;-89
2022/10/07 07:15:27;;;;;;;;;;;10.80;99.90;;;;;;5020602;28;20380;-90
2022/10/07 07:17:53;;;;;;;;;;;10.90;99.90;;;;;;5003738;28;19963;-90
2022/10/07 07:20:18;;;;;;;;;;;10.90;99.90;;;;;;5022081;28;19921;-90
2022/10/07 07:22:44;;;;;;;;;;;11.00;99.90;;;;;;5001728;28;19921;-88
2022/10/07 07:25:10;;;;;;;;;;;11.10;99.90;;;;;;4999273;28;19920;-90
2022/10/07 07:27:36;;;;;;;;;;;11.10;99.90;;;;;;5013940;28;20435;-90
2022/10/07 07:30:02;;;;;;;;;;;11.90;99.90;;;;;;5027990;28;19928;-90
2022/10/07 07:32:29;;;;;;;;;;;11.30;99.90;;;;;;5029403;28;20409;-91
2022/10/07 07:34:54;;;;;;;;;;;11.40;99.90;;;;;;5012314;28;20290;-90
2022/10/07 07:37:20;;;;;;;;;;;11.40;99.90;;;;;;4995847;28;20269;-91
2022/10/07 07:39:46;;;;;;;;;;;11.70;99.90;;;;;;5032901;28;20372;-91
2022/10/07 07:42:11;;;;;;;;;;;11.50;99.90;;;;;;4992806;28;19927;-92
2022/10/07 07:44:38;;;;;;;;;;;11.60;99.90;;;;;;5009317;28;19928;-92
2022/10/07 07:47:05;;;;;;;;;;;11.70;99.90;;;;;;5010041;28;19921;-92
2022/10/07 07:49:32;;;;;;;;;;;11.80;99.90;;;;;;5026096;28;19925;-92
2022/10/07 07:51:59;;;;;;;;;;;11.90;99.90;;;;;;5026406;28;20360;-91
2022/10/07 07:54:26;;;;;;;;;;;12.20;99.90;;;;;;5010302;28;19921;-91
2022/10/07 07:56:55;;;;;;;;;;;12.40;99.90;;;;;;4993353;28;19921;-91
2022/10/07 07:59:22;;;;;;;;;;;12.60;99.90;;;;;;5011135;28;20376;-90
2022/10/07 08:01:47;;;;;;;;;;;12.70;99.90;;;;;;5010478;28;19921;-91
2022/10/07 08:04:14;;;;;;;;;;;12.70;99.90;;;;;;5028163;28;19921;-91
2022/10/07 08:06:40;;;;;;;;;;;12.70;99.90;;;;;;5010147;28;19985;-92
2022/10/07 08:09:05;;;;;;;;;;;12.70;99.90;;;;;;5024912;28;19945;-92
2022/10/07 08:11:31;;;;;;;;;;;12.80;99.90;;;;;;5026072;28;19924;-92
2022/10/07 08:13:58;;;;;;;;;;;12.80;99.90;;;;;;5004215;28;20395;-94
2022/10/07 08:16:25;;;;;;;;;;;12.90;99.90;;;;;;5008940;28;19948;-90
2022/10/07 08:18:51;;;;;;;;;;;12.90;99.90;;;;;;5009365;28;19921;-90
2022/10/07 08:21:18;;;;;;;;;;;13.00;99.90;;;;;;5030055;28;19928;-89
2022/10/07 08:23:50;;;;;;;;;;;13.10;99.90;;;;;;5030486;28;19921;-89
2022/10/07 08:26:22;;;;;;;;;;;13.10;99.90;;;;;;5013185;28;19921;-89
2022/10/07 08:28:48;;;;;;;;;;;13.20;99.90;;;;;;5013152;28;19921;-90
2022/10/07 08:31:21;;;;;;;;;;;13.30;99.90;;;;;;4998263;28;20372;-90
2022/10/07 08:33:48;;;;;;;;;;;13.40;99.90;;;;;;5012613;28;19961;-89
2022/10/07 08:36:15;;;;;;;;;;;13.50;99.90;;;;;;5014137;28;20493;-88
2022/10/07 08:38:41;;;;;;;;;;;13.50;99.90;;;;;;5015733;28;19960;-90
2022/10/07 08:41:22;;;;;;;;;;;13.60;99.90;;;;;;5012514;28;20277;-88
2022/10/07 08:43:49;;;;;;;;;;;13.60;99.90;;;;;;5012968;28;20418;-89
2022/10/07 08:46:16;;;;;;;;;;;13.90;99.90;;;;;;5013482;28;19947;-88
2022/10/07 08:48:51;;;;;;;;;;;14.60;99.90;;;;;;5014097;28;19921;-89
2022/10/07 08:51:19;;;;;;;;;;;13.90;99.90;;;;;;5013660;28;19921;-88
2022/10/07 08:53:48;;;;;;;;;;;14.00;99.90;;;;;;5034225;28;20369;-88
2022/10/07 08:56:15;;;;;;;;;;;14.60;99.90;;;;;;5022333;28;19921;-89
2022/10/07 08:58:50;;;;;;;;;;;14.20;99.90;;;;;;5022385;28;19921;-88
2022/10/07 09:01:16;;;;;;;;;;;14.30;99.90;;;;;;5020873;28;19952;-88
2022/10/07 09:03:46;;;;;;;;;;;14.40;99.90;;;;;;5022029;28;19921;-87
2022/10/07 09:06:27;;;;;;;;;;;14.50;99.90;;;;;;5002678;28;20048;-88
2022/10/07 09:08:56;;;;;;;;;;;14.50;99.90;;;;;;5022756;28;19940;-92
2022/10/07 09:11:24;;;;;;;;;;;14.60;99.90;;;;;;5021255;28;20274;-90
2022/10/07 09:13:56;;;;;;;;;;;14.70;99.90;;;;;;4997349;28;19928;-91
2022/10/07 09:16:25;;;;;;;;;;;14.70;99.90;;;;;;5018107;28;19944;-91
2022/10/07 09:18:52;;;;;;;;;;;14.70;99.90;;;;;;5013741;28;19932;-90
2022/10/07 09:21:26;;;;;;;;;;;15.00;99.90;;;;;;5030181;28;19920;-92
2022/10/07 09:23:54;;;;;;;;;;;14.80;99.90;;;;;;5030977;28;19921;-91
2022/10/07 09:26:20;;;;;;;;;;;14.90;99.90;;;;;;5012549;28;19921;-91
2022/10/07 09:28:46;;;;;;;;;;;14.80;99.90;;;;;;4995099;28;19947;-90
2022/10/07 09:31:13;;;;;;;;;;;14.90;99.90;;;;;;5010056;28;19921;-91
2022/10/07 09:33:43;;;;;;;;;;;15.00;99.90;;;;;;5028393;28;19920;-90
2022/10/07 09:36:11;;;;;;;;;;;15.10;99.90;;;;;;5012750;28;19928;-88
2022/10/07 09:38:36;;;;;;;;;;;15.40;99.90;;;;;;5012522;28;19928;-91
2022/10/07 09:41:15;;;;;;;;;;;15.20;99.90;;;;;;5011604;28;19921;-92
2022/10/07 09:43:56;;;;;;;;;;;15.30;99.90;;;;;;5013377;28;19932;-91
2022/10/07 09:46:28;;;;;;;;;;;15.40;99.90;;;;;;5012161;28;19967;-91
2022/10/07 09:48:54;;;;;;;;;;;15.40;99.90;;;;;;5015787;28;19946;-93
2022/10/07 09:51:25;;;;;;;;;;;15.60;99.90;;;;;;5015420;28;19928;-93
2022/10/07 09:53:56;;;;;;;;;;;15.70;99.90;;;;;;4999276;28;19920;-94
2022/10/07 09:56:34;;;;;;;;;;;15.80;99.90;;;;;;5016446;28;19948;-94
2022/10/07 09:59:20;;;;;;;;;;;15.90;99.90;;;;;;5018669;28;20265;-93
2022/10/07 10:01:50;;;;;;;;;;;16.00;99.90;;;;;;5016584;28;19994;-93
2022/10/07 10:04:17;;;;;;;;;;;16.00;99.90;;;;;;5011870;28;20145;-93
2022/10/07 10:06:47;;;;;;;;;;;16.10;99.90;;;;;;5015816;28;20304;-93
2022/10/07 10:09:16;;;;;;;;;;;16.20;99.90;;;;;;5015984;28;19928;-93
2022/10/07 10:11:41;;;;;;;;;;;16.30;99.90;;;;;;5016302;28;19928;-92
2022/10/07 10:14:27;;;;;;;;;;;16.40;99.90;;;;;;5003230;28;19920;-92
2022/10/07 10:16:56;;;;;;;;;;;16.50;99.90;;;;;;5017983;28;19928;-94
2022/10/07 10:19:23;;;;;;;;;;;16.60;99.90;;;;;;5038357;28;19928;-96
2022/10/07 10:21:58;;;;;;;;;;;16.70;99.90;;;;;;5043793;28;19931;-96
2022/10/07 10:27:29;;;;;;;;;;;16.80;99.90;;;;;;5045231;28;19932;-96
2022/10/07 10:29:55;;;;;;;;;;;16.70;99.90;;;;;;5025553;28;19992;-95
2022/10/07 10:32:28;;;;;;;;;;;17.40;99.90;;;;;;5022207;28;19975;-95
2022/10/07 10:35:01;;;;;;;;;;;16.60;99.90;;;;;;5021275;28;20007;-96
2022/10/07 10:37:30;;;;;;;;;;;16.60;99.90;;;;;;5019345;28;19921;-93
2022/10/07 10:40:02;;;;;;;;;;;16.60;99.90;;;;;;5016543;28;20658;-94
2022/10/07 10:42:49;;;;;;;;;;;16.70;99.90;;;;;;5019205;28;20338;-95
2022/10/07 10:45:33;;;;;;;;;;;16.80;99.90;;;;;;5005138;28;19998;-94
2022/10/07 10:48:17;;;;;;;;;;;16.80;99.90;;;;;;5020359;28;19928;-96
2022/10/07 10:50:52;;;;;;;;;;;16.90;99.90;;;;;;5022816;28;19984;-94
2022/10/07 10:53:33;;;;;;;;;;;17.00;99.90;;;;;;5018061;28;19920;-95
2022/10/07 10:55:59;;;;;;;;;;;17.10;99.90;;;;;;5016213;28;19921;-95
2022/10/07 10:58:35;;;;;;;;;;;17.20;99.90;;;;;;5020794;28;19984;-96
2022/10/07 11:01:15;;;;;;;;;;;17.30;99.90;;;;;;5036085;28;19920;-95
2022/10/07 11:03:50;;;;;;;;;;;17.30;99.90;;;;;;5020547;28;20356;-94
2022/10/07 11:06:17;;;;;;;;;;;17.30;99.90;;;;;;5016299;28;19925;-94
2022/10/07 11:08:42;;;;;;;;;;;17.40;99.90;;;;;;5017617;28;19920;-95
2022/10/07 11:11:14;;;;;;;;;;;17.40;99.90;;;;;;5015736;28;19928;-92
2022/10/07 11:13:57;;;;;;;;;;;17.50;99.90;;;;;;5016689;28;19943;-96
2022/10/07 11:16:26;;;;;;;;;;;17.50;99.90;;;;;;5018469;28;19926;-93
2022/10/07 11:18:59;;;;;;;;;;;17.50;99.90;;;;;;5017406;28;19968;-93
2022/10/07 11:21:39;;;;;;;;;;;17.60;99.90;;;;;;5016064;28;20449;-96
2022/10/07 11:24:15;;;;;;;;;;;17.60;99.90;;;;;;5014767;28;20546;-93
2022/10/07 11:26:49;;;;;;;;;;;17.60;99.90;;;;;;5014426;28;20536;-95
2022/10/07 11:29:21;;;;;;;;;;;17.70;99.90;;;;;;5016697;28;20397;-93
2022/10/07 11:31:51;;;;;;;;;;;17.80;99.90;;;;;;5016720;28;20000;-93
2022/10/07 11:34:50;;;;;;;;;;;17.90;99.90;;;;;;5017899;28;19921;-94
2022/10/07 11:37:16;;;;;;;;;;;18.00;99.90;;;;;;4985960;28;19932;-94
2022/10/07 11:39:41;;;;;;;;;;;18.00;99.90;;;;;;5015572;28;19920;-94
2022/10/07 11:42:26;;;;;;;;;;;18.10;99.90;;;;;;5002824;28;19975;-96
2022/10/07 11:44:54;;;;;;;;;;;18.10;99.90;;;;;;5023559;28;19921;-94
2022/10/07 11:47:23;;;;;;;;;;;18.10;99.90;;;;;;5019085;28;20413;-94
2022/10/07 11:49:56;;;;;;;;;;;18.10;99.90;;;;;;5031594;28;19927;-95
2022/10/07 11:52:25;;;;;;;;;;;18.00;99.90;;;;;;5034050;28;19932;-94
2022/10/07 11:54:59;;;;;;;;;;;17.90;99.90;;;;;;5021968;28;19956;-93
2022/10/07 11:57:26;;;;;;;;;;;17.80;99.90;;;;;;5027920;28;19920;-95
2022/10/07 12:00:14;;;;;;;;;;;17.70;99.90;;;;;;5020053;28;20360;-95
2022/10/07 12:02:42;;;;;;;;;;;17.60;99.90;;;;;;5018881;28;19980;-94
2022/10/07 12:05:27;;;;;;;;;;;17.50;99.90;;;;;;5016926;28;19920;-93
2022/10/07 12:07:58;;;;;;;;;;;17.50;99.90;;;;;;5016034;28;19971;-94
2022/10/07 12:10:31;;;;;;;;;;;17.60;99.90;;;;;;5016056;28;19921;-94
2022/10/07 12:12:56;;;;;;;;;;;17.90;99.90;;;;;;5015481;28;19943;-96
2022/10/07 12:15:34;;;;;;;;;;;17.60;99.90;;;;;;5015701;28;19980;-91
2022/10/07 12:18:03;;;;;;;;;;;17.50;99.90;;;;;;5034305;28;19921;-96
2022/10/07 12:20:47;;;;;;;;;;;17.50;99.90;;;;;;5015610;28;19920;-94
2022/10/07 12:23:16;;;;;;;;;;;17.50;99.90;;;;;;5016695;28;20007;-95
2022/10/07 12:25:45;;;;;;;;;;;17.60;99.90;;;;;;5019410;28;19921;-91
2022/10/07 12:28:16;;;;;;;;;;;17.60;99.90;;;;;;5001340;28;20372;-91
2022/10/07 12:30:49;;;;;;;;;;;17.70;99.90;;;;;;5027812;28;19921;-92
2022/10/07 12:33:23;;;;;;;;;;;17.80;99.90;;;;;;5024011;28;19959;-95
2022/10/07 12:35:49;;;;;;;;;;;17.80;99.90;;;;;;5026754;28;19974;-95
2022/10/07 12:38:24;;;;;;;;;;;17.70;99.90;;;;;;5000801;28;19920;-92
2022/10/07 12:40:56;;;;;;;;;;;17.70;99.90;;;;;;5017659;28;19920;-92
2022/10/07 12:43:36;;;;;;;;;;;17.60;99.90;;;;;;5016538;28;20391;-93
2022/10/07 12:46:04;;;;;;;;;;;17.60;99.90;;;;;;5020136;28;19921;-91
2022/10/07 12:48:33;;;;;;;;;;;17.50;99.90;;;;;;5021806;28;19925;-93
2022/10/07 12:51:00;;;;;;;;;;;17.50;99.90;;;;;;5024106;28;19920;-91
2022/10/07 12:53:29;;;;;;;;;;;17.60;99.90;;;;;;5038235;28;20353;-88
2022/10/07 12:55:55;;;;;;;;;;;17.60;99.90;;;;;;5023545;28;19920;-93
2022/10/07 13:01:17;;;;;;;;;;;17.60;99.90;;;;;;5039838;28;19963;-91
2022/10/07 13:03:57;;;;;;;;;;;17.70;99.90;;;;;;5038943;28;19921;-92
2022/10/07 13:06:47;;;;;;;;;;;17.70;99.90;;;;;;5016797;28;19928;-94
2022/10/07 13:09:19;;;;;;;;;;;17.70;99.90;;;;;;5019881;28;19927;-92
2022/10/07 13:12:23;;;;;;;;;;;17.70;99.90;;;;;;5022907;28;19920;-91
2022/10/07 13:14:49;;;;;;;;;;;17.60;99.90;;;;;;4958774;28;19922;-91
2022/10/07 13:17:26;;;;;;;;;;;17.50;99.90;;;;;;4990803;28;20420;-91
2022/10/07 13:20:04;;;;;;;;;;;17.50;99.90;;;;;;4989410;28;20003;-94
2022/10/07 13:22:30;;;;;;;;;;;17.50;99.90;;;;;;5021120;28;19920;-95
2022/10/07 13:24:57;;;;;;;;;;;17.50;99.90;;;;;;5003547;28;19951;-95
2022/10/07 13:27:41;;;;;;;;;;;17.50;99.90;;;;;;5002731;28;19924;-96
2022/10/07 13:30:28;;;;;;;;;;;17.50;99.90;;;;;;5018003;28;19967;-95
2022/10/07 13:32:53;;;;;;;;;;;17.50;99.90;;;;;;5015571;28;19920;-94
2022/10/07 13:35:28;;;;;;;;;;;17.50;99.90;;;;;;4999313;28;19920;-95
2022/10/07 13:37:55;;;;;;;;;;;17.60;99.90;;;;;;5016817;28;19974;-95
2022/10/07 13:40:24;;;;;;;;;;;17.60;99.90;;;;;;5017120;28;20383;-96
2022/10/07 13:42:58;;;;;;;;;;;17.60;99.90;;;;;;5015196;28;20229;-96
2022/10/07 13:45:24;;;;;;;;;;;17.60;99.90;;;;;;5016517;28;19921;-95
2022/10/07 13:47:50;;;;;;;;;;;17.50;99.90;;;;;;5017274;28;20433;-93
2022/10/07 13:50:21;;;;;;;;;;;17.50;99.90;;;;;;4997740;28;20021;-92
2022/10/07 13:52:48;;;;;;;;;;;17.50;99.90;;;;;;5015842;28;19921;-93
2022/10/07 13:55:30;;;;;;;;;;;17.50;99.90;;;;;;5014336;28;19921;-94
2022/10/07 13:57:57;;;;;;;;;;;17.50;99.90;;;;;;5016627;28;19924;-93
2022/10/07 14:00:27;;;;;;;;;;;17.40;99.90;;;;;;5015184;28;19968;-92
2022/10/07 14:02:52;;;;;;;;;;;17.40;99.90;;;;;;5014663;28;19979;-94
2022/10/07 14:05:18;;;;;;;;;;;17.30;99.90;;;;;;5015753;28;19924;-93
2022/10/07 14:07:44;;;;;;;;;;;17.20;99.90;;;;;;5014456;28;19946;-94
2022/10/07 14:10:12;;;;;;;;;;;17.20;99.90;;;;;;4998677;28;19928;-94
2022/10/07 14:12:40;;;;;;;;;;;17.20;99.90;;;;;;5013778;28;19921;-93
2022/10/07 14:15:09;;;;;;;;;;;17.20;99.90;;;;;;5014641;28;20019;-92
2022/10/07 14:17:39;;;;;;;;;;;17.20;99.90;;;;;;5017520;28;19984;-92
2022/10/07 14:20:25;;;;;;;;;;;17.20;99.90;;;;;;5016371;28;19920;-93
2022/10/07 14:22:52;;;;;;;;;;;17.20;99.90;;;;;;5015362;28;19928;-93
2022/10/07 14:25:28;;;;;;;;;;;17.20;99.90;;;;;;5015108;28;19920;-93
2022/10/07 14:27:54;;;;;;;;;;;17.20;99.90;;;;;;5015290;28;19920;-93
2022/10/07 14:30:27;;;;;;;;;;;17.20;99.90;;;;;;5015069;28;20387;-93
2022/10/07 14:36:08;;;;;;;;;;;17.30;99.90;;;;;;5051266;28;19920;-94
2022/10/07 14:38:33;;;;;;;;;;;17.30;99.90;;;;;;5014716;28;19921;-93
2022/10/07 14:40:59;;;;;;;;;;;17.30;99.90;;;;;;4999710;28;20362;-93
2022/10/07 14:43:25;;;;;;;;;;;17.30;99.90;;;;;;5016376;28;20011;-92
2022/10/07 14:45:51;;;;;;;;;;;17.40;99.90;;;;;;5014873;28;19980;-91
2022/10/07 14:48:17;;;;;;;;;;;17.40;99.90;;;;;;4997832;28;20387;-92
2022/10/07 14:50:42;;;;;;;;;;;17.40;99.90;;;;;;5014211;28;19921;-92